Stations météo

réclame
Mon MeteoGroup
Hemavan, Suède (2104): Température de l'air & dewpoint: 17.04.2018 04:00:00 - 23.04.2018 04:00:00 (CEST)Hemavan, Suède (2104): Vitesse du vent: 17.04.2018 04:00:00 - 23.04.2018 04:00:00 (CEST)Hemavan, Suède (2104): Direction du vent: 17.04.2018 04:00:00 - 23.04.2018 04:00:00 (CEST)Hemavan, Suède (2104): visibility: 17.04.2018 04:00:00 - 23.04.2018 04:00:00 (CEST)
Date & Time tt [°C] td [°C] ff [km/h] ff [knt] dd vv [km]
23.04.2018 04:00:00 - - - - - -
23.04.2018 03:00:00 -3,0 -3,0 5 3 - 10
23.04.2018 02:00:00 -3,0 -3,0 5 3 - 10
23.04.2018 01:00:00 -2,0 -2,0 0 0 N 10
23.04.2018 00:00:00 -2,0 -2,0 4 2 - 10
22.04.2018 23:00:00 -1,0 -2,0 2 1 - 10
22.04.2018 22:00:00 0,0 -1,0 4 2 SSE 10
22.04.2018 21:00:00 2,0 -1,0 4 2 W 10
22.04.2018 20:00:00 5,0 0,0 5 3 WNW 10
22.04.2018 19:00:00 4,0 0,0 9 5 NNW 10
22.04.2018 18:00:00 5,0 -1,0 5 3 NW 10
22.04.2018 17:00:00 5,0 -1,0 5 3 NNW 10
22.04.2018 16:00:00 5,0 -1,0 8 4 W 10
22.04.2018 15:00:00 5,0 0,0 11 6 W 10
22.04.2018 14:00:00 4,0 0,0 15 8 WNW 10
22.04.2018 13:00:00 4,0 0,0 15 8 W 10
22.04.2018 12:00:00 5,0 0,0 11 6 NW 10
22.04.2018 11:00:00 4,0 1,0 9 5 NW 10
22.04.2018 10:00:00 4,0 1,0 8 4 W 10
22.04.2018 09:00:00 4,0 2,0 4 2 N 10
22.04.2018 08:00:00 2,0 1,0 4 2 N 10
22.04.2018 07:00:00 2,0 1,0 2 1 NNE 10
22.04.2018 06:00:00 1,0 1,0 5 3 W 10
22.04.2018 05:00:00 2,0 1,0 4 2 ENE 10
22.04.2018 04:00:00 2,0 1,0 0 0 N 10
22.04.2018 03:00:00 1,0 1,0 4 2 N 10
22.04.2018 02:00:00 2,0 1,0 4 2 E 10
22.04.2018 01:00:00 2,0 1,0 2 1 - 10
22.04.2018 00:00:00 2,0 1,0 2 1 - 10
21.04.2018 23:00:00 2,0 1,0 8 4 NW 10
21.04.2018 22:00:00 2,0 1,0 8 4 N 10
21.04.2018 21:00:00 2,0 1,0 8 4 N 10
21.04.2018 20:00:00 2,0 1,0 11 6 NNW 10
21.04.2018 19:00:00 2,0 1,0 9 5 NW 10
21.04.2018 18:00:00 3,0 1,0 11 6 WNW 10
21.04.2018 17:00:00 3,0 2,0 0 0 N 7
21.04.2018 16:00:00 3,0 1,0 4 2 - 10
21.04.2018 15:00:00 2,0 1,0 4 2 - 10
21.04.2018 14:00:00 3,0 1,0 2 1 - 10
21.04.2018 13:00:00 3,0 0,0 5 3 N 10
21.04.2018 12:00:00 3,0 0,0 5 3 N 10
21.04.2018 11:00:00 3,0 1,0 4 2 - 10
21.04.2018 10:00:00 3,0 0,0 2 1 - 10
21.04.2018 09:00:00 2,0 0,0 4 2 SE 10
21.04.2018 08:00:00 2,0 1,0 4 2 - 10
21.04.2018 07:00:00 1,0 1,0 0 0 N 10
21.04.2018 06:00:00 1,0 1,0 2 1 - 10
21.04.2018 05:00:00 2,0 1,0 5 3 SE 10
21.04.2018 04:00:00 2,0 1,0 5 3 ESE 8
21.04.2018 03:00:00 1,0 1,0 9 5 SSE 10
21.04.2018 02:00:00 1,0 1,0 4 2 SE 10
21.04.2018 01:00:00 2,0 1,0 5 3 SSE 10
21.04.2018 00:00:00 2,0 1,0 4 2 - 10
20.04.2018 23:00:00 2,0 1,0 0 0 N 10
20.04.2018 22:00:00 2,0 1,0 5 3 - 10
20.04.2018 21:00:00 3,0 2,0 5 3 - 10
20.04.2018 20:00:00 5,0 1,0 9 5 WNW 10
20.04.2018 19:00:00 5,0 3,0 4 2 - 10
20.04.2018 18:00:00 5,0 3,0 4 2 - 10
20.04.2018 17:00:00 6,0 2,0 2 1 NNE 10
20.04.2018 16:00:00 6,0 1,0 0 0 N 10
20.04.2018 15:00:00 6,0 2,0 11 6 N 10
20.04.2018 14:00:00 5,0 3,0 4 2 - 10
20.04.2018 13:00:00 5,0 2,0 0 0 N 10
20.04.2018 12:00:00 6,0 3,0 2 1 - 10
20.04.2018 11:00:00 4,0 3,0 8 4 N 10
20.04.2018 10:00:00 4,0 2,0 8 4 NW 10
20.04.2018 09:00:00 5,0 2,0 8 4 NW 10
20.04.2018 08:00:00 4,0 2,0 11 6 WNW 10
20.04.2018 07:00:00 2,0 2,0 2 1 - 1,2
20.04.2018 06:00:00 1,0 1,0 2 1 - 1,0
20.04.2018 05:00:00 2,0 2,0 4 2 ENE 3,8
20.04.2018 04:00:00 2,0 1,0 2 1 - 1,8
20.04.2018 03:00:00 1,0 1,0 2 1 - 0,9
20.04.2018 02:00:00 1,0 1,0 2 1 - 0,6
20.04.2018 01:00:00 2,0 2,0 0 0 N 2,8
20.04.2018 00:00:00 2,0 2,0 4 2 - 3,6
19.04.2018 23:00:00 3,0 2,0 4 2 - 7
19.04.2018 22:00:00 4,0 3,0 5 3 - 7
19.04.2018 21:00:00 5,0 2,0 8 4 SSE 10
19.04.2018 20:00:00 5,0 2,0 8 4 SSE 10
19.04.2018 19:00:00 7,0 1,0 5 3 SSE 10
19.04.2018 18:00:00 7,0 1,0 8 4 SSE 10
19.04.2018 17:00:00 7,0 1,0 8 4 E 10
19.04.2018 16:00:00 9,0 2,0 4 2 - 10
19.04.2018 15:00:00 9,0 3,0 4 2 - 10
19.04.2018 14:00:00 8,0 3,0 4 2 - 10
19.04.2018 13:00:00 8,0 3,0 4 2 N 10
19.04.2018 12:00:00 7,0 3,0 4 2 - 10
19.04.2018 11:00:00 6,0 3,0 2 1 - 10
19.04.2018 10:00:00 5,0 3,0 5 3 - 10
19.04.2018 09:00:00 5,0 3,0 0 0 N 10
19.04.2018 08:00:00 4,0 3,0 0 0 N 10
19.04.2018 07:00:00 4,0 2,0 8 4 WNW 10
19.04.2018 06:00:00 3,0 2,0 8 4 NNW 10
19.04.2018 05:00:00 2,0 2,0 4 2 - 10
19.04.2018 04:00:00 2,0 1,0 0 0 N 10
19.04.2018 03:00:00 2,0 1,0 4 2 ESE 10
19.04.2018 02:00:00 2,0 1,0 4 2 - 10
19.04.2018 01:00:00 2,0 1,0 0 0 N 10
19.04.2018 00:00:00 2,0 1,0 4 2 - 10
18.04.2018 23:00:00 3,0 2,0 5 3 N 10
18.04.2018 22:00:00 3,0 2,0 11 6 NNW 10
18.04.2018 21:00:00 4,0 2,0 11 6 N 10
18.04.2018 20:00:00 3,0 2,0 9 5 WNW 10
18.04.2018 19:00:00 4,0 2,0 11 6 WNW 9
18.04.2018 18:00:00 5,0 1,0 21 11 W 10
18.04.2018 17:00:00 6,0 0,0 18 10 WNW 10
18.04.2018 16:00:00 7,0 -1,0 16 9 NW 10
18.04.2018 15:00:00 8,0 -3,0 8 4 NNW 10
18.04.2018 14:00:00 7,0 -3,0 5 3 NW 10
18.04.2018 13:00:00 8,0 -4,0 8 4 NNW 10
18.04.2018 12:00:00 5,0 -4,0 4 2 - 10
18.04.2018 11:00:00 4,0 -4,0 5 3 NW 10
18.04.2018 10:00:00 0,0 -4,0 4 2 N 10
18.04.2018 09:00:00 -2,0 -5,0 2 1 NW 10
18.04.2018 08:00:00 -3,0 -5,0 0 0 N 10
18.04.2018 07:00:00 -6,0 -7,0 2 1 - 10
18.04.2018 06:00:00 -8,0 -10,0 0 0 N 10
18.04.2018 05:00:00 -7,0 -8,0 2 1 - 10
18.04.2018 04:00:00 -6,0 -7,0 4 2 ENE 10
18.04.2018 03:00:00 -5,0 -6,0 4 2 SSE 10
18.04.2018 02:00:00 -6,0 -7,0 0 0 N 10
18.04.2018 01:00:00 -5,0 -6,0 2 1 - 10
18.04.2018 00:00:00 -2,0 -4,0 2 1 - 10
17.04.2018 23:00:00 -2,0 -3,0 0 0 N 10
17.04.2018 22:00:00 0,0 -3,0 0 0 N 10
17.04.2018 21:00:00 2,0 -2,0 2 1 - 10
17.04.2018 20:00:00 7,0 -3,0 4 2 - 10
17.04.2018 19:00:00 9,0 -4,0 5 3 NW 10
17.04.2018 18:00:00 10,0 -5,0 5 3 NW 10
17.04.2018 17:00:00 11,0 -4,0 5 3 - 10
17.04.2018 16:00:00 10,0 -5,0 4 2 NNW 10
17.04.2018 15:00:00 10,0 -5,0 4 2 - 10
17.04.2018 14:00:00 10,0 -4,0 4 2 NNW 10
17.04.2018 13:00:00 9,0 -3,0 4 2 WNW 10
17.04.2018 12:00:00 7,0 -5,0 4 2 NNW 10
17.04.2018 11:00:00 5,0 -4,0 2 1 N 10
17.04.2018 10:00:00 2,0 -3,0 0 0 N 10
17.04.2018 09:00:00 1,0 -3,0 0 0 N 10
17.04.2018 08:00:00 -2,0 -5,0 0 0 N 10
17.04.2018 07:00:00 -3,0 -5,0 0 0 N 10
17.04.2018 06:00:00 -4,0 -5,0 0 0 N 10
17.04.2018 05:00:00 -6,0 -7,0 2 1 SSE 10
17.04.2018 04:00:00 -6,0 -7,0 2 1 - 10

tt = Température de l'air
td = dewpoint
ff = Vitesse du vent
dd = Direction du vent
vv = visibility

stations d'obs. à proximité